This is the latest recevied weather packets stored in our database for station/object KJ6APE. If no packets are shown the sender has not sent any weather packets the latest 10 day(s).
| Time | Temp. | Humidity | Pressure | Rain* | Wind** | Luminosity | Snow |
|---|---|---|---|---|---|---|---|
| 1778096532 | 22.78° C | 52% | 1020 hPa | 0 mm | - | 409 W/m² | - |
| 1778096230 | 22.78° C | 53% | 1020 hPa | 0 mm | - | 1151 W/m² | - |
| 1778095927 | 22.78° C | 54% | 1020.2 hPa | 0 mm | - | 802 W/m² | - |
| 1778095624 | 22.22° C | 56% | 1020.2 hPa | 0 mm | - | 1113 W/m² | - |
| 1778095320 | 22.22° C | 55% | 1020.1 hPa | 0 mm | - | 1061 W/m² | - |
| 1778095017 | 22.22° C | 53% | 1020.3 hPa | 0 mm | - | 811 W/m² | - |
| 1778094713 | 22.22° C | 55% | 1020.2 hPa | 0 mm | - | 1133 W/m² | - |
| 1778094411 | 22.22° C | 56% | 1020.3 hPa | 0 mm | - | 570 W/m² | - |
| 1778094107 | 22.78° C | 54% | 1020.2 hPa | 0 mm | - | 571 W/m² | - |
| 1778093804 | 22.22° C | 56% | 1020.1 hPa | 0 mm | - | 994 W/m² | - |
| 1778093500 | 21.67° C | 55% | 1020.5 hPa | 0 mm | - | 975 W/m² | - |
| 1778093198 | 21.67° C | 56% | 1020.3 hPa | 0 mm | - | 935 W/m² | - |
| 1778092895 | 22.22° C | 54% | 1020.3 hPa | 0 mm | - | 921 W/m² | - |
| 1778092592 | 21.67° C | 57% | 1020.5 hPa | 0 mm | - | 911 W/m² | - |
| 1778092288 | 21.67° C | 54% | 1020.6 hPa | 0 mm | - | 886 W/m² | - |
| 1778091986 | 21.11° C | 55% | 1020.4 hPa | 0 mm | - | 870 W/m² | - |
| 1778091682 | 21.11° C | 57% | 1020.6 hPa | 0 mm | - | 860 W/m² | - |
| 1778091380 | 21.11° C | 56% | 1020.5 hPa | 0 mm | - | 853 W/m² | - |
| 1778091077 | 21.11° C | 56% | 1020.7 hPa | 0 mm | - | 838 W/m² | - |
| 1778090774 | 21.67° C | 54% | 1020.6 hPa | 0 mm | - | 827 W/m² | - |
| 1778090470 | 21.67° C | 55% | 1020.6 hPa | 0 mm | - | 813 W/m² | - |
| 1778090167 | 21.11° C | 57% | 1020.6 hPa | 0 mm | - | 798 W/m² | - |
| 1778089863 | 20.56° C | 57% | 1020.7 hPa | 0 mm | - | 787 W/m² | - |
| 1778089562 | 20.56° C | 58% | 1020.6 hPa | 0 mm | - | 770 W/m² | - |
| 1778089257 | 20.56° C | 59% | 1020.6 hPa | 0 mm | - | 755 W/m² | - |
* Rain latest hour (hover to see other rain measurements)
** Current wind speed in m/s (hover to see current wind gust speed)